Time;durP1;ratioP1;P1;durP2;ratioP2;P2;SDS_P1;SDS_P2;PMS_P1;PMS_P2;Temp;Humidity;BMP_temperature;BMP_pressure;BME280_temperature;BME280_humidity;BME280_pressure;Samples;Min_cycle;Max_cycle;Signal;HPM_P1;HPM_P2
2022/12/24 00:02:06;;;;;;;;;;;;;;;;;;5305576;23;19910;-90
2022/12/24 00:04:31;;;;;;;;;;;;;;;;;;5566250;22;20006;-90
2022/12/24 00:06:57;;;;;;;;;;;;;;;;;;5020745;28;19928;-89
2022/12/24 00:09:22;;;;;;;;;;;;;;;;;;5004873;28;19902;-89
2022/12/24 00:11:48;;;;;;;;;;;;;;;;;;4986459;28;19980;-90
2022/12/24 00:14:13;;;;;;;;;;;;;;;;;;4967454;28;20349;-94
2022/12/24 00:16:39;;;;;;;;;;;;;;;;;;4981233;28;19914;-92
2022/12/24 00:19:04;;;;;;;;;;;;;;;;;;4964913;28;19920;-92
2022/12/24 00:21:29;;;;;;;;;;;;;;;;;;4964540;28;19953;-94
2022/12/24 00:23:55;;;;;;;;;;;;;;;;;;4966839;28;19917;-92
2022/12/24 00:26:20;;;;;;;;;;;;;;;;;;4982809;28;19921;-94
2022/12/24 00:31:27;;;;;;;;;;;;;;;;;;5404455;23;19910;-88
2022/12/24 00:33:52;;;;;;;;;;;;;;;;;;5018335;28;19922;-90
2022/12/24 00:36:28;;;;;;;;;;;;;;;;;;5003494;28;19961;-89
2022/12/24 00:38:54;;;;;;;;;;;;;;;;;;4987663;28;19922;-89
2022/12/24 00:44:01;;;;;;;;;;;;;;;;;;5446971;22;19925;-91
2022/12/24 00:46:26;;;;;;;;;;;;;;;;;;4987887;28;19922;-87
2022/12/24 00:51:35;;;;;;;;;;;;;;;;;;5111486;23;19909;-86
2022/12/24 00:56:41;;;;;;;;;;;;;;;;;;5429351;22;19918;-90
2022/12/24 00:59:06;;;;;;;;;;;;;;;;;;5053598;23;20012;-92
2022/12/24 01:01:31;;;;;;;;;;;;;;;;;;4981541;28;19914;-93
2022/12/24 01:06:42;;;;;;;;;;;;;;;;;;5226467;23;19934;-91
2022/12/24 01:09:07;;;;;;;;;;;;;;;;;;5010812;28;19965;-92
2022/12/24 01:11:33;;;;;;;;;;;;;;;;;;5008115;28;19921;-94
2022/12/24 01:16:40;;;;;;;;;;;;;;;;;;5186087;22;19910;-91
2022/12/24 01:19:05;;;;;;;;;;;;;;;;;;5420390;23;19922;-88
2022/12/24 01:21:31;;;;;;;;;;;;;;;;;;4976214;28;19968;-90
2022/12/24 01:26:49;;;;;;;;;;;;;;;;;;4992843;28;19926;-91
2022/12/24 01:29:14;;;;;;;;;;;;;;;;;;4956617;28;19925;-90
2022/12/24 01:31:40;;;;;;;;;;;;;;;;;;4974470;28;20378;-90
2022/12/24 01:34:06;;;;;;;;;;;;;;;;;;4951045;29;20005;-92
2022/12/24 01:36:31;;;;;;;;;;;;;;;;;;4944995;29;19950;-93
2022/12/24 01:38:56;;;;;;;;;;;;;;;;;;4944814;29;19938;-92
2022/12/24 01:44:06;;;;;;;;;;;;;;;;;;4943213;29;19922;-93
2022/12/24 01:46:31;;;;;;;;;;;;;;;;;;4942463;29;19915;-93
2022/12/24 01:48:57;;;;;;;;;;;;;;;;;;4941765;29;20429;-92
2022/12/24 01:51:22;;;;;;;;;;;;;;;;;;4941433;29;19914;-92
2022/12/24 01:53:47;;;;;;;;;;;;;;;;;;4945369;29;19938;-91
2022/12/24 01:56:13;;;;;;;;;;;;;;;;;;4976479;28;19998;-90
2022/12/24 01:58:38;;;;;;;;;;;;;;;;;;4959772;29;20005;-91
2022/12/24 02:01:05;;;;;;;;;;;;;;;;;;4964279;28;19946;-91
2022/12/24 02:03:31;;;;;;;;;;;;;;;;;;4961039;29;19918;-91
2022/12/24 02:05:56;;;;;;;;;;;;;;;;;;4954932;29;19922;-92
2022/12/24 02:08:21;;;;;;;;;;;;;;;;;;4958830;28;19922;-93
2022/12/24 02:10:47;;;;;;;;;;;;;;;;;;4942084;29;20014;-91
2022/12/24 02:13:12;;;;;;;;;;;;;;;;;;4942178;29;19911;-95
2022/12/24 02:15:38;;;;;;;;;;;;;;;;;;4941896;29;19918;-91
2022/12/24 02:18:03;;;;;;;;;;;;;;;;;;4940908;29;19915;-93
2022/12/24 02:20:28;;;;;;;;;;;;;;;;;;4940627;29;19965;-93
2022/12/24 02:22:54;;;;;;;;;;;;;;;;;;4940361;29;20271;-94
2022/12/24 02:25:19;;;;;;;;;;;;;;;;;;4941253;29;19918;-91
2022/12/24 02:27:45;;;;;;;;;;;;;;;;;;4957576;29;20021;-90
2022/12/24 02:30:10;;;;;;;;;;;;;;;;;;4961505;29;19914;-92
2022/12/24 02:32:40;;;;;;;;;;;;;;;;;;5047273;23;20012;-90
2022/12/24 02:35:05;;;;;;;;;;;;;;;;;;4991308;28;19918;-91
2022/12/24 02:37:31;;;;;;;;;;;;;;;;;;4968242;28;19956;-91
2022/12/24 02:39:56;;;;;;;;;;;;;;;;;;4986163;28;20370;-92
2022/12/24 02:42:22;;;;;;;;;;;;;;;;;;4942265;28;19920;-92
2022/12/24 02:44:48;;;;;;;;;;;;;;;;;;4942777;28;19917;-94
2022/12/24 02:47:13;;;;;;;;;;;;;;;;;;4943859;28;19914;-91
2022/12/24 02:49:39;;;;;;;;;;;;;;;;;;4947759;28;19911;-93
2022/12/24 02:52:04;;;;;;;;;;;;;;;;;;4984691;28;19921;-92
2022/12/24 02:54:29;;;;;;;;;;;;;;;;;;4956892;28;19918;-90
2022/12/24 02:56:55;;;;;;;;;;;;;;;;;;4956035;28;19915;-92
2022/12/24 02:59:20;;;;;;;;;;;;;;;;;;4955625;28;19974;-91
2022/12/24 03:01:45;;;;;;;;;;;;;;;;;;4947470;28;19914;-94
2022/12/24 03:04:11;;;;;;;;;;;;;;;;;;4955568;28;20274;-92
2022/12/24 03:06:36;;;;;;;;;;;;;;;;;;4988422;28;20020;-91
2022/12/24 03:09:02;;;;;;;;;;;;;;;;;;4981816;28;19925;-92
2022/12/24 03:11:27;;;;;;;;;;;;;;;;;;4951064;28;19914;-91
2022/12/24 03:13:52;;;;;;;;;;;;;;;;;;4950782;28;19914;-91
2022/12/24 03:16:18;;;;;;;;;;;;;;;;;;4961850;28;19922;-91
2022/12/24 03:18:43;;;;;;;;;;;;;;;;;;4968229;28;19914;-91
2022/12/24 03:21:08;;;;;;;;;;;;;;;;;;4951195;28;19910;-90
2022/12/24 03:23:34;;;;;;;;;;;;;;;;;;4950313;28;20016;-92
2022/12/24 03:25:59;;;;;;;;;;;;;;;;;;4956372;28;19921;-92
2022/12/24 03:28:25;;;;;;;;;;;;;;;;;;4994668;28;19925;-90
2022/12/24 03:30:50;;;;;;;;;;;;;;;;;;4987473;28;19898;-91
2022/12/24 03:33:16;;;;;;;;;;;;;;;;;;4976520;28;19918;-91
2022/12/24 03:35:41;;;;;;;;;;;;;;;;;;4958799;28;19913;-89
2022/12/24 03:38:06;;;;;;;;;;;;;;;;;;4952797;28;19969;-91
2022/12/24 03:40:32;;;;;;;;;;;;;;;;;;4982397;28;19914;-92
2022/12/24 03:42:57;;;;;;;;;;;;;;;;;;4953630;28;20434;-91
2022/12/24 03:45:23;;;;;;;;;;;;;;;;;;4951959;28;19953;-91
2022/12/24 03:47:48;;;;;;;;;;;;;;;;;;4956093;28;19898;-89
2022/12/24 03:50:14;;;;;;;;;;;;;;;;;;4973491;28;19925;-93
2022/12/24 03:52:39;;;;;;;;;;;;;;;;;;4949199;28;19918;-92
2022/12/24 03:55:05;;;;;;;;;;;;;;;;;;4945635;28;19922;-92
2022/12/24 03:57:30;;;;;;;;;;;;;;;;;;4964371;28;19957;-92
2022/12/24 03:59:56;;;;;;;;;;;;;;;;;;5148914;23;19941;-93
2022/12/24 04:02:21;;;;;;;;;;;;;;;;;;4963194;28;19957;-94
2022/12/24 04:04:46;;;;;;;;;;;;;;;;;;4977885;28;19914;-89
2022/12/24 04:07:12;;;;;;;;;;;;;;;;;;4962116;28;20393;-93
2022/12/24 04:09:38;;;;;;;;;;;;;;;;;;4961580;28;19922;-93
2022/12/24 04:12:03;;;;;;;;;;;;;;;;;;4963909;28;20330;-91
2022/12/24 04:14:28;;;;;;;;;;;;;;;;;;4976304;28;20287;-94
2022/12/24 04:16:54;;;;;;;;;;;;;;;;;;4978275;28;19905;-91
2022/12/24 04:19:19;;;;;;;;;;;;;;;;;;4984223;28;19910;-92
2022/12/24 04:21:45;;;;;;;;;;;;;;;;;;4983943;28;19917;-93
2022/12/24 04:24:10;;;;;;;;;;;;;;;;;;4984455;28;19910;-93
2022/12/24 04:26:35;;;;;;;;;;;;;;;;;;5001285;28;19970;-89
2022/12/24 04:29:01;;;;;;;;;;;;;;;;;;4975527;28;19918;-92
2022/12/24 04:31:26;;;;;;;;;;;;;;;;;;4989726;28;19985;-91
2022/12/24 04:33:52;;;;;;;;;;;;;;;;;;4979758;28;19925;-91
2022/12/24 04:36:17;;;;;;;;;;;;;;;;;;4982999;28;19933;-90
2022/12/24 04:38:43;;;;;;;;;;;;;;;;;;4979061;28;19918;-91
2022/12/24 04:41:08;;;;;;;;;;;;;;;;;;4976403;28;19914;-92
2022/12/24 04:43:33;;;;;;;;;;;;;;;;;;4980482;28;19918;-89
2022/12/24 04:45:59;;;;;;;;;;;;;;;;;;4980075;28;19938;-92
2022/12/24 04:48:24;;;;;;;;;;;;;;;;;;4984829;28;19934;-92
2022/12/24 04:50:50;;;;;;;;;;;;;;;;;;4984016;28;19918;-87
2022/12/24 04:53:15;;;;;;;;;;;;;;;;;;4984138;28;19909;-87
2022/12/24 04:55:41;;;;;;;;;;;;;;;;;;5015112;28;19980;-92
2022/12/24 04:58:06;;;;;;;;;;;;;;;;;;4996678;28;19917;-92
2022/12/24 05:00:31;;;;;;;;;;;;;;;;;;4984068;28;19926;-90
2022/12/24 05:02:57;;;;;;;;;;;;;;;;;;4999385;28;19985;-92
2022/12/24 05:05:22;;;;;;;;;;;;;;;;;;4983435;28;19957;-89
2022/12/24 05:07:51;;;;;;;;;;;;;;;;;;5016608;28;19971;-89
2022/12/24 05:10:16;;;;;;;;;;;;;;;;;;5082100;22;19910;-88
2022/12/24 05:12:42;;;;;;;;;;;;;;;;;;5017693;28;19921;-88
2022/12/24 05:15:07;;;;;;;;;;;;;;;;;;5226853;22;19910;-88
2022/12/24 05:20:14;;;;;;;;;;;;;;;;;;5331633;23;19913;-89
2022/12/24 05:28:08;;;;;;;;;;;;;;;;;;5009904;28;19918;-91
2022/12/24 05:30:34;;;;;;;;;;;;;;;;;;4992580;23;19920;-87
2022/12/24 05:32:59;;;;;;;;;;;;;;;;;;5000874;28;19924;-88
2022/12/24 05:35:24;;;;;;;;;;;;;;;;;;5017948;28;19922;-87
2022/12/24 05:37:50;;;;;;;;;;;;;;;;;;5015139;28;19910;-88
2022/12/24 05:40:18;;;;;;;;;;;;;;;;;;4999658;28;19921;-86
2022/12/24 05:42:44;;;;;;;;;;;;;;;;;;4983529;28;19906;-87
2022/12/24 05:45:09;;;;;;;;;;;;;;;;;;5015657;28;19990;-86
2022/12/24 05:47:35;;;;;;;;;;;;;;;;;;5015495;28;19921;-86
2022/12/24 05:50:00;;;;;;;;;;;;;;;;;;5015536;28;19919;-86
2022/12/24 05:52:26;;;;;;;;;;;;;;;;;;5014018;28;19915;-85
2022/12/24 05:54:51;;;;;;;;;;;;;;;;;;5014592;28;19957;-84
2022/12/24 05:57:17;;;;;;;;;;;;;;;;;;4997506;28;19913;-89
2022/12/24 05:59:43;;;;;;;;;;;;;;;;;;4996365;28;19898;-87
2022/12/24 06:02:08;;;;;;;;;;;;;;;;;;5014278;28;19898;-88
2022/12/24 06:04:34;;;;;;;;;;;;;;;;;;4997485;28;19920;-87
2022/12/24 06:06:59;;;;;;;;;;;;;;;;;;4998093;28;19910;-88
2022/12/24 06:09:25;;;;;;;;;;;;;;;;;;5013667;28;19921;-87
2022/12/24 06:11:50;;;;;;;;;;;;;;;;;;4998480;28;19927;-88
2022/12/24 06:14:16;;;;;;;;;;;;;;;;;;5014585;28;19965;-87
2022/12/24 06:16:41;;;;;;;;;;;;;;;;;;4999275;28;19938;-88
2022/12/24 06:19:07;;;;;;;;;;;;;;;;;;4999627;28;19918;-88
2022/12/24 06:21:32;;;;;;;;;;;;;;;;;;4996700;28;19914;-88
2022/12/24 06:23:58;;;;;;;;;;;;;;;;;;5014495;28;19914;-87
2022/12/24 06:26:23;;;;;;;;;;;;;;;;;;5000164;28;19940;-88
2022/12/24 06:28:49;;;;;;;;;;;;;;;;;;4981796;28;19903;-88
2022/12/24 06:31:14;;;;;;;;;;;;;;;;;;4997458;28;19942;-88
2022/12/24 06:33:40;;;;;;;;;;;;;;;;;;4997715;28;19918;-88
2022/12/24 06:36:06;;;;;;;;;;;;;;;;;;4997295;28;19902;-88
2022/12/24 06:38:31;;;;;;;;;;;;;;;;;;4999150;28;20040;-88
2022/12/24 06:40:57;;;;;;;;;;;;;;;;;;4998675;28;19910;-87
2022/12/24 06:43:23;;;;;;;;;;;;;;;;;;5014844;28;19906;-87
2022/12/24 06:45:48;;;;;;;;;;;;;;;;;;4998452;28;19918;-87
2022/12/24 06:48:14;;;;;;;;;;;;;;;;;;4998147;28;19937;-87
2022/12/24 06:50:39;;;;;;;;;;;;;;;;;;4996997;28;19918;-87
2022/12/24 06:53:05;;;;;;;;;;;;;;;;;;4996604;28;19918;-88
2022/12/24 06:55:30;;;;;;;;;;;;;;;;;;4981255;28;19910;-87
2022/12/24 06:57:56;;;;;;;;;;;;;;;;;;5012863;28;19921;-88
2022/12/24 07:00:22;;;;;;;;;;;;;;;;;;4997770;28;19921;-86
2022/12/24 07:02:47;;;;;;;;;;;;;;;;;;4997460;28;19914;-88
2022/12/24 07:05:16;;;;;;;;;;;;;;;;;;4996535;28;19921;-87
2022/12/24 07:07:41;;;;;;;;;;;;;;;;;;5012717;28;19914;-88
2022/12/24 07:10:07;;;;;;;;;;;;;;;;;;4995378;28;19921;-87
2022/12/24 07:12:33;;;;;;;;;;;;;;;;;;5011480;28;19945;-88
2022/12/24 07:14:58;;;;;;;;;;;;;;;;;;5010982;28;19918;-88
2022/12/24 07:17:24;;;;;;;;;;;;;;;;;;4995141;28;19894;-88
2022/12/24 07:19:50;;;;;;;;;;;;;;;;;;4995004;28;19989;-88
2022/12/24 07:22:15;;;;;;;;;;;;;;;;;;4995537;28;19914;-89
2022/12/24 07:24:41;;;;;;;;;;;;;;;;;;5010009;28;19918;-88
2022/12/24 07:27:07;;;;;;;;;;;;;;;;;;5011238;28;19910;-88
2022/12/24 07:29:33;;;;;;;;;;;;;;;;;;5011133;28;19902;-88
2022/12/24 07:31:59;;;;;;;;;;;;;;;;;;4994443;28;19978;-88
2022/12/24 07:34:24;;;;;;;;;;;;;;;;;;4994165;28;19981;-89
2022/12/24 07:36:50;;;;;;;;;;;;;;;;;;4993801;28;19920;-88
2022/12/24 07:39:16;;;;;;;;;;;;;;;;;;4993230;28;19981;-89
2022/12/24 07:41:42;;;;;;;;;;;;;;;;;;4995592;28;19911;-88
2022/12/24 07:44:08;;;;;;;;;;;;;;;;;;4978309;28;19914;-84
2022/12/24 07:46:33;;;;;;;;;;;;;;;;;;4997984;28;19917;-87
2022/12/24 07:48:59;;;;;;;;;;;;;;;;;;5014290;28;19914;-86
2022/12/24 07:51:24;;;;;;;;;;;;;;;;;;4999782;28;19910;-87
2022/12/24 07:53:50;;;;;;;;;;;;;;;;;;4999854;28;19922;-86
2022/12/24 07:56:16;;;;;;;;;;;;;;;;;;5000528;28;19946;-85
2022/12/24 07:58:41;;;;;;;;;;;;;;;;;;4999203;28;19992;-85
2022/12/24 08:01:07;;;;;;;;;;;;;;;;;;4999319;28;19910;-86
2022/12/24 08:03:32;;;;;;;;;;;;;;;;;;4999292;28;20340;-84
2022/12/24 08:05:58;;;;;;;;;;;;;;;;;;4998778;28;19914;-86
2022/12/24 08:08:24;;;;;;;;;;;;;;;;;;4997746;28;19914;-87
2022/12/24 08:10:52;;;;;;;;;;;;;;;;;;4996936;28;19915;-87
2022/12/24 08:13:18;;;;;;;;;;;;;;;;;;4979957;28;19929;-87
2022/12/24 08:15:44;;;;;;;;;;;;;;;;;;4995778;28;19917;-87
2022/12/24 08:18:09;;;;;;;;;;;;;;;;;;4996009;28;19957;-87
2022/12/24 08:20:35;;;;;;;;;;;;;;;;;;5012413;28;19914;-86
2022/12/24 08:23:01;;;;;;;;;;;;;;;;;;4995699;28;19940;-87
2022/12/24 08:25:26;;;;;;;;;;;;;;;;;;4992645;28;19981;-84
2022/12/24 08:27:52;;;;;;;;;;;;;;;;;;4978839;28;19941;-87
2022/12/24 08:30:18;;;;;;;;;;;;;;;;;;4979537;28;19969;-87
2022/12/24 08:32:43;;;;;;;;;;;;;;;;;;5011697;28;20003;-88
2022/12/24 08:35:09;;;;;;;;;;;;;;;;;;4993349;28;19918;-88
2022/12/24 08:37:35;;;;;;;;;;;;;;;;;;4995570;28;19914;-88
2022/12/24 08:40:00;;;;;;;;;;;;;;;;;;4993023;28;20386;-85
2022/12/24 08:42:26;;;;;;;;;;;;;;;;;;4993435;28;19914;-87
2022/12/24 08:44:51;;;;;;;;;;;;;;;;;;4994444;28;19922;-88
2022/12/24 08:47:17;;;;;;;;;;;;;;;;;;4993648;28;19949;-87
2022/12/24 08:49:43;;;;;;;;;;;;;;;;;;4993710;28;19920;-88
2022/12/24 08:52:08;;;;;;;;;;;;;;;;;;4993593;28;19914;-87
2022/12/24 08:54:33;;;;;;;;;;;;;;;;;;4993723;28;19918;-88
2022/12/24 08:57:02;;;;;;;;;;;;;;;;;;4993048;28;20457;-87
2022/12/24 08:59:27;;;;;;;;;;;;;;;;;;4977311;28;19914;-85
2022/12/24 09:01:53;;;;;;;;;;;;;;;;;;4994086;28;19921;-85
2022/12/24 09:04:19;;;;;;;;;;;;;;;;;;4977625;28;19921;-84
2022/12/24 09:06:44;;;;;;;;;;;;;;;;;;4995367;28;19898;-84
2022/12/24 09:09:10;;;;;;;;;;;;;;;;;;4979264;28;19918;-85
2022/12/24 09:11:35;;;;;;;;;;;;;;;;;;4996700;28;19961;-84
2022/12/24 09:14:01;;;;;;;;;;;;;;;;;;5011965;28;19902;-84
2022/12/24 09:16:26;;;;;;;;;;;;;;;;;;4995646;28;19918;-84
2022/12/24 09:18:52;;;;;;;;;;;;;;;;;;4996098;28;19917;-84
2022/12/24 09:21:18;;;;;;;;;;;;;;;;;;4977802;28;19925;-85
2022/12/24 09:23:43;;;;;;;;;;;;;;;;;;4995078;28;19921;-85
2022/12/24 09:26:09;;;;;;;;;;;;;;;;;;4995730;28;19978;-84
2022/12/24 09:28:35;;;;;;;;;;;;;;;;;;4996818;28;19917;-85
2022/12/24 09:31:00;;;;;;;;;;;;;;;;;;4996900;28;19914;-86
2022/12/24 09:33:30;;;;;;;;;;;;;;;;;;5012793;28;19921;-84
2022/12/24 09:35:55;;;;;;;;;;;;;;;;;;4995952;28;19925;-86
2022/12/24 09:38:21;;;;;;;;;;;;;;;;;;4996372;28;19978;-84
2022/12/24 09:40:47;;;;;;;;;;;;;;;;;;4996844;28;19914;-84
2022/12/24 09:43:13;;;;;;;;;;;;;;;;;;4995817;28;19921;-84
2022/12/24 09:45:38;;;;;;;;;;;;;;;;;;4995218;28;19914;-85
2022/12/24 09:48:03;;;;;;;;;;;;;;;;;;4995844;28;19911;-86
2022/12/24 09:50:29;;;;;;;;;;;;;;;;;;4997099;28;19914;-85
2022/12/24 09:52:55;;;;;;;;;;;;;;;;;;4997438;28;19952;-84
2022/12/24 09:55:20;;;;;;;;;;;;;;;;;;4996176;28;19918;-86
2022/12/24 09:57:49;;;;;;;;;;;;;;;;;;4981294;28;19921;-86
2022/12/24 10:00:15;;;;;;;;;;;;;;;;;;4982558;28;19917;-85
2022/12/24 10:02:41;;;;;;;;;;;;;;;;;;5013646;28;19911;-86
2022/12/24 10:05:07;;;;;;;;;;;;;;;;;;4981683;28;19905;-86
2022/12/24 10:07:32;;;;;;;;;;;;;;;;;;5014509;28;19914;-85
2022/12/24 10:10:01;;;;;;;;;;;;;;;;;;4998186;28;19902;-86
2022/12/24 10:12:26;;;;;;;;;;;;;;;;;;4998596;28;19922;-84
2022/12/24 10:14:52;;;;;;;;;;;;;;;;;;4998195;28;19918;-86
2022/12/24 10:17:17;;;;;;;;;;;;;;;;;;4981863;28;19910;-86
2022/12/24 10:19:44;;;;;;;;;;;;;;;;;;4998857;28;19929;-84
2022/12/24 10:22:09;;;;;;;;;;;;;;;;;;4998010;28;19914;-84
2022/12/24 10:24:35;;;;;;;;;;;;;;;;;;4981996;28;19926;-86
2022/12/24 10:27:00;;;;;;;;;;;;;;;;;;4998261;28;19918;-86
2022/12/24 10:29:26;;;;;;;;;;;;;;;;;;5014432;28;19969;-86
2022/12/24 10:31:51;;;;;;;;;;;;;;;;;;5014230;28;19922;-85
2022/12/24 10:34:17;;;;;;;;;;;;;;;;;;4998320;28;19898;-85
2022/12/24 10:36:42;;;;;;;;;;;;;;;;;;4997592;28;19942;-86
2022/12/24 10:39:08;;;;;;;;;;;;;;;;;;4982065;28;19925;-84
2022/12/24 10:41:34;;;;;;;;;;;;;;;;;;5013671;28;19914;-86
2022/12/24 10:43:59;;;;;;;;;;;;;;;;;;4989486;28;20540;-86
2022/12/24 10:46:25;;;;;;;;;;;;;;;;;;4961287;28;19920;-86
2022/12/24 10:48:50;;;;;;;;;;;;;;;;;;4965705;28;19918;-84
2022/12/24 10:51:16;;;;;;;;;;;;;;;;;;4997205;28;19898;-83
2022/12/24 10:53:41;;;;;;;;;;;;;;;;;;4997875;28;19895;-85
2022/12/24 10:56:07;;;;;;;;;;;;;;;;;;4998530;28;19926;-83
2022/12/24 10:58:32;;;;;;;;;;;;;;;;;;4996898;28;19918;-84
2022/12/24 11:00:58;;;;;;;;;;;;;;;;;;4984434;28;19914;-84
2022/12/24 11:03:23;;;;;;;;;;;;;;;;;;4994893;28;19961;-83
2022/12/24 11:05:49;;;;;;;;;;;;;;;;;;4997340;28;19922;-83
2022/12/24 11:08:16;;;;;;;;;;;;;;;;;;5012155;28;19933;-83
2022/12/24 11:10:41;;;;;;;;;;;;;;;;;;4997226;28;19953;-84
2022/12/24 11:13:07;;;;;;;;;;;;;;;;;;4994604;28;19898;-82
2022/12/24 11:15:33;;;;;;;;;;;;;;;;;;4983972;28;19926;-84
2022/12/24 11:17:58;;;;;;;;;;;;;;;;;;4987575;28;19915;-83
2022/12/24 11:20:24;;;;;;;;;;;;;;;;;;4987231;28;19921;-82
2022/12/24 11:22:49;;;;;;;;;;;;;;;;;;4994397;28;19914;-82
2022/12/24 11:25:15;;;;;;;;;;;;;;;;;;4997639;28;19918;-84
2022/12/24 11:27:40;;;;;;;;;;;;;;;;;;5000356;28;19922;-88
2022/12/24 11:30:06;;;;;;;;;;;;;;;;;;4981125;28;20430;-85
2022/12/24 11:32:31;;;;;;;;;;;;;;;;;;5005423;28;19941;-81
2022/12/24 11:34:57;;;;;;;;;;;;;;;;;;4998992;28;19918;-86
2022/12/24 11:37:22;;;;;;;;;;;;;;;;;;4973389;28;19997;-88
2022/12/24 11:39:48;;;;;;;;;;;;;;;;;;4990130;28;20323;-88
2022/12/24 11:42:13;;;;;;;;;;;;;;;;;;4972488;28;19914;-87
2022/12/24 11:44:38;;;;;;;;;;;;;;;;;;5015378;28;19921;-83
2022/12/24 11:47:04;;;;;;;;;;;;;;;;;;4995606;28;19914;-85
2022/12/24 11:49:29;;;;;;;;;;;;;;;;;;4980493;28;20350;-88
2022/12/24 11:51:55;;;;;;;;;;;;;;;;;;4993412;28;19969;-87
2022/12/24 11:54:20;;;;;;;;;;;;;;;;;;4979450;28;19918;-88
2022/12/24 11:56:45;;;;;;;;;;;;;;;;;;4996507;28;19914;-87
2022/12/24 11:59:11;;;;;;;;;;;;;;;;;;4995193;28;19981;-88
2022/12/24 12:01:36;;;;;;;;;;;;;;;;;;4999007;28;19914;-86
2022/12/24 12:04:02;;;;;;;;;;;;;;;;;;5000767;28;19970;-85
2022/12/24 12:06:27;;;;;;;;;;;;;;;;;;4984402;28;19922;-85
2022/12/24 12:08:53;;;;;;;;;;;;;;;;;;5010973;28;19921;-86
2022/12/24 12:11:18;;;;;;;;;;;;;;;;;;4970453;28;19911;-85
2022/12/24 12:13:43;;;;;;;;;;;;;;;;;;4980174;28;20005;-86
2022/12/24 12:16:09;;;;;;;;;;;;;;;;;;4993341;28;19918;-87
2022/12/24 12:18:34;;;;;;;;;;;;;;;;;;4994566;28;19920;-87
2022/12/24 12:20:59;;;;;;;;;;;;;;;;;;4960648;28;19949;-87
2022/12/24 12:23:25;;;;;;;;;;;;;;;;;;4960216;28;20017;-87
2022/12/24 12:25:50;;;;;;;;;;;;;;;;;;4975465;28;19918;-87
2022/12/24 12:28:16;;;;;;;;;;;;;;;;;;4977204;28;19914;-86
2022/12/24 12:30:41;;;;;;;;;;;;;;;;;;4978552;28;20374;-87
2022/12/24 12:33:06;;;;;;;;;;;;;;;;;;4978225;28;19918;-86
2022/12/24 12:35:32;;;;;;;;;;;;;;;;;;4976535;28;19918;-87
2022/12/24 12:37:58;;;;;;;;;;;;;;;;;;4975825;28;19921;-86
2022/12/24 12:40:23;;;;;;;;;;;;;;;;;;4975702;28;19914;-86
2022/12/24 12:42:48;;;;;;;;;;;;;;;;;;4976320;28;19921;-87
2022/12/24 12:45:14;;;;;;;;;;;;;;;;;;4975652;28;19914;-84
2022/12/24 12:47:39;;;;;;;;;;;;;;;;;;4977918;28;20306;-88
2022/12/24 12:50:04;;;;;;;;;;;;;;;;;;4977445;28;19914;-87
2022/12/24 12:52:30;;;;;;;;;;;;;;;;;;4960626;28;19972;-87
2022/12/24 12:54:58;;;;;;;;;;;;;;;;;;4977205;28;20378;-84
2022/12/24 12:57:23;;;;;;;;;;;;;;;;;;4978739;28;19914;-85
2022/12/24 12:59:49;;;;;;;;;;;;;;;;;;4979766;28;19914;-89
2022/12/24 13:02:14;;;;;;;;;;;;;;;;;;4976971;28;19922;-89
2022/12/24 13:04:40;;;;;;;;;;;;;;;;;;4975569;28;20013;-88
2022/12/24 13:07:05;;;;;;;;;;;;;;;;;;4976048;28;20329;-89
2022/12/24 13:09:31;;;;;;;;;;;;;;;;;;4976454;28;20393;-87
2022/12/24 13:11:56;;;;;;;;;;;;;;;;;;4976880;28;19968;-88
2022/12/24 13:14:22;;;;;;;;;;;;;;;;;;4976018;28;19914;-88
2022/12/24 13:16:47;;;;;;;;;;;;;;;;;;4976886;28;20003;-87
2022/12/24 13:19:13;;;;;;;;;;;;;;;;;;4980028;28;20297;-87
2022/12/24 13:21:38;;;;;;;;;;;;;;;;;;5008045;28;19917;-85
2022/12/24 13:24:04;;;;;;;;;;;;;;;;;;4986169;28;19914;-88
2022/12/24 13:26:29;;;;;;;;;;;;;;;;;;4964883;28;19980;-88
2022/12/24 13:28:54;;;;;;;;;;;;;;;;;;4975982;28;20322;-87
2022/12/24 13:31:20;;;;;;;;;;;;;;;;;;4975353;28;19945;-89
2022/12/24 13:33:45;;;;;;;;;;;;;;;;;;4974350;28;19914;-89
2022/12/24 13:36:12;;;;;;;;;;;;;;;;;;4990937;28;19965;-89
2022/12/24 13:38:39;;;;;;;;;;;;;;;;;;4958642;28;19914;-89
2022/12/24 13:41:04;;;;;;;;;;;;;;;;;;4974876;28;20366;-89
2022/12/24 13:43:30;;;;;;;;;;;;;;;;;;4990957;28;19941;-89
2022/12/24 13:45:57;;;;;;;;;;;;;;;;;;4959724;28;20005;-88
2022/12/24 13:48:23;;;;;;;;;;;;;;;;;;4975895;28;19921;-89
2022/12/24 13:50:48;;;;;;;;;;;;;;;;;;4974970;28;19911;-87
2022/12/24 13:53:17;;;;;;;;;;;;;;;;;;4975252;28;20382;-87
2022/12/24 13:55:42;;;;;;;;;;;;;;;;;;4976384;28;19925;-87
2022/12/24 13:58:07;;;;;;;;;;;;;;;;;;4975620;28;19914;-88
2022/12/24 14:00:33;;;;;;;;;;;;;;;;;;4974523;28;19936;-87
2022/12/24 14:02:58;;;;;;;;;;;;;;;;;;4974292;28;19914;-87
2022/12/24 14:05:24;;;;;;;;;;;;;;;;;;4957662;28;19914;-86
2022/12/24 14:07:49;;;;;;;;;;;;;;;;;;4990019;28;19918;-86
2022/12/24 14:10:15;;;;;;;;;;;;;;;;;;4974960;28;19914;-86
2022/12/24 14:12:40;;;;;;;;;;;;;;;;;;4989815;28;20017;-85
2022/12/24 14:15:05;;;;;;;;;;;;;;;;;;4973904;28;19918;-86
2022/12/24 14:17:32;;;;;;;;;;;;;;;;;;4974412;28;19914;-86
2022/12/24 14:19:57;;;;;;;;;;;;;;;;;;4976224;28;20115;-86
2022/12/24 14:22:23;;;;;;;;;;;;;;;;;;4958510;28;20461;-87
2022/12/24 14:24:48;;;;;;;;;;;;;;;;;;4959870;28;19915;-86
2022/12/24 14:27:14;;;;;;;;;;;;;;;;;;4975189;28;19937;-86
2022/12/24 14:29:39;;;;;;;;;;;;;;;;;;4991165;28;19925;-88
2022/12/24 14:32:04;;;;;;;;;;;;;;;;;;4974649;28;20293;-86
2022/12/24 14:34:30;;;;;;;;;;;;;;;;;;4976996;28;19921;-85
2022/12/24 14:36:56;;;;;;;;;;;;;;;;;;4964290;28;19914;-85
2022/12/24 14:39:21;;;;;;;;;;;;;;;;;;4964969;28;20529;-86
2022/12/24 14:41:46;;;;;;;;;;;;;;;;;;4962888;28;20330;-85
2022/12/24 14:44:12;;;;;;;;;;;;;;;;;;4960639;28;19921;-87
2022/12/24 14:46:37;;;;;;;;;;;;;;;;;;4988103;28;19914;-83
2022/12/24 14:49:03;;;;;;;;;;;;;;;;;;4977920;28;19934;-83
2022/12/24 14:51:28;;;;;;;;;;;;;;;;;;4975785;28;19910;-84
2022/12/24 14:53:54;;;;;;;;;;;;;;;;;;4968262;28;19992;-85
2022/12/24 14:56:19;;;;;;;;;;;;;;;;;;4983278;28;20385;-86
2022/12/24 14:58:45;;;;;;;;;;;;;;;;;;4983274;28;19914;-86
2022/12/24 15:01:10;;;;;;;;;;;;;;;;;;4967830;28;20362;-85
2022/12/24 15:03:36;;;;;;;;;;;;;;;;;;4983519;28;19956;-86
2022/12/24 15:06:02;;;;;;;;;;;;;;;;;;4980988;28;19914;-86
2022/12/24 15:08:27;;;;;;;;;;;;;;;;;;4979266;28;19914;-86
2022/12/24 15:10:53;;;;;;;;;;;;;;;;;;4992679;28;20424;-86
2022/12/24 15:13:18;;;;;;;;;;;;;;;;;;4974849;28;20312;-86
2022/12/24 15:15:43;;;;;;;;;;;;;;;;;;4975899;28;20369;-86
2022/12/24 15:18:09;;;;;;;;;;;;;;;;;;4961799;28;20382;-86
2022/12/24 15:20:34;;;;;;;;;;;;;;;;;;4977695;28;19915;-86
2022/12/24 15:22:59;;;;;;;;;;;;;;;;;;4979035;28;19918;-86
2022/12/24 15:25:25;;;;;;;;;;;;;;;;;;4965401;28;19914;-84
2022/12/24 15:27:50;;;;;;;;;;;;;;;;;;4980218;28;20444;-86
2022/12/24 15:30:16;;;;;;;;;;;;;;;;;;4991936;28;19921;-87
2022/12/24 15:32:41;;;;;;;;;;;;;;;;;;4989982;28;19925;-87
2022/12/24 15:35:07;;;;;;;;;;;;;;;;;;4974481;28;20370;-87
2022/12/24 15:37:32;;;;;;;;;;;;;;;;;;4990017;28;20040;-87
2022/12/24 15:39:58;;;;;;;;;;;;;;;;;;4974223;28;20388;-87
2022/12/24 15:42:23;;;;;;;;;;;;;;;;;;4972766;28;19949;-87
2022/12/24 15:44:48;;;;;;;;;;;;;;;;;;4956822;28;20398;-87
2022/12/24 15:47:14;;;;;;;;;;;;;;;;;;4973204;28;19925;-88
2022/12/24 15:49:39;;;;;;;;;;;;;;;;;;4973012;28;20322;-88
2022/12/24 15:52:05;;;;;;;;;;;;;;;;;;4974206;28;20013;-87
2022/12/24 15:54:30;;;;;;;;;;;;;;;;;;4973215;28;19918;-88
2022/12/24 15:56:56;;;;;;;;;;;;;;;;;;4957585;28;19943;-87
2022/12/24 15:59:21;;;;;;;;;;;;;;;;;;4974700;28;20412;-86
2022/12/24 16:01:46;;;;;;;;;;;;;;;;;;4975496;28;19914;-88
2022/12/24 16:04:12;;;;;;;;;;;;;;;;;;4992434;28;19997;-88
2022/12/24 16:06:37;;;;;;;;;;;;;;;;;;4976759;28;20281;-89
2022/12/24 16:09:02;;;;;;;;;;;;;;;;;;4976693;28;19914;-88
2022/12/24 16:11:29;;;;;;;;;;;;;;;;;;4960164;28;20381;-87
2022/12/24 16:13:54;;;;;;;;;;;;;;;;;;4960723;28;20030;-87
2022/12/24 16:16:20;;;;;;;;;;;;;;;;;;4960449;28;19965;-88
2022/12/24 16:18:45;;;;;;;;;;;;;;;;;;4979805;28;19977;-86
2022/12/24 16:21:11;;;;;;;;;;;;;;;;;;4992428;28;19973;-85
2022/12/24 16:23:38;;;;;;;;;;;;;;;;;;4981268;28;21326;-85
2022/12/24 16:26:04;;;;;;;;;;;;;;;;;;4999181;28;19925;-84
2022/12/24 16:28:29;;;;;;;;;;;;;;;;;;4999516;28;19914;-86
2022/12/24 16:30:55;;;;;;;;;;;;;;;;;;4983821;28;19953;-86
2022/12/24 16:33:22;;;;;;;;;;;;;;;;;;4998447;28;19969;-84
2022/12/24 16:35:48;;;;;;;;;;;;;;;;;;4996610;28;19986;-84
2022/12/24 16:38:13;;;;;;;;;;;;;;;;;;5010703;28;19931;-84
2022/12/24 16:40:39;;;;;;;;;;;;;;;;;;4992312;28;19918;-84
2022/12/24 16:45:52;;;;;;;;;;;;;;;;;;4996110;28;19914;-85
2022/12/24 16:48:17;;;;;;;;;;;;;;;;;;4980529;28;19929;-85
2022/12/24 16:50:43;;;;;;;;;;;;;;;;;;4996204;28;19969;-85
2022/12/24 16:53:08;;;;;;;;;;;;;;;;;;4995883;28;19990;-84
2022/12/24 16:55:34;;;;;;;;;;;;;;;;;;5012781;28;19918;-85
2022/12/24 16:57:59;;;;;;;;;;;;;;;;;;4997587;28;19898;-85
2022/12/24 17:00:25;;;;;;;;;;;;;;;;;;4998211;28;19960;-85
2022/12/24 17:02:51;;;;;;;;;;;;;;;;;;4998448;28;19930;-85
2022/12/24 17:05:16;;;;;;;;;;;;;;;;;;4998819;28;19914;-84
2022/12/24 17:07:42;;;;;;;;;;;;;;;;;;4995542;28;20362;-85